sensor_id;sensor_type;location;lat;lon;timestamp;P1;durP1;ratioP1;P2;durP2;ratioP2
15608;SDS011;64278;45.642;13.756;2022-12-29T00:01:33;5.80;;;5.30;;
15608;SDS011;64278;45.642;13.756;2022-12-29T00:03:59;6.97;;;6.38;;
15608;SDS011;64278;45.642;13.756;2022-12-29T00:06:26;5.97;;;5.47;;
15608;SDS011;64278;45.642;13.756;2022-12-29T00:08:52;6.35;;;5.75;;
15608;SDS011;64278;45.642;13.756;2022-12-29T00:11:19;7.20;;;6.50;;
15608;SDS011;64278;45.642;13.756;2022-12-29T00:13:45;6.72;;;6.13;;
15608;SDS011;64278;45.642;13.756;2022-12-29T00:16:30;6.47;;;5.78;;
15608;SDS011;64278;45.642;13.756;2022-12-29T00:18:57;6.18;;;5.57;;
15608;SDS011;64278;45.642;13.756;2022-12-29T00:21:23;7.03;;;6.43;;
15608;SDS011;64278;45.642;13.756;2022-12-29T00:24:16;6.75;;;6.10;;
15608;SDS011;64278;45.642;13.756;2022-12-29T00:29:46;6.63;;;6.13;;
15608;SDS011;64278;45.642;13.756;2022-12-29T00:32:31;6.70;;;6.10;;
15608;SDS011;64278;45.642;13.756;2022-12-29T00:35:21;7.03;;;6.43;;
15608;SDS011;64278;45.642;13.756;2022-12-29T00:38:10;6.05;;;5.55;;
15608;SDS011;64278;45.642;13.756;2022-12-29T00:40:55;7.53;;;6.78;;
15608;SDS011;64278;45.642;13.756;2022-12-29T00:43:39;7.53;;;6.82;;
15608;SDS011;64278;45.642;13.756;2022-12-29T00:46:23;7.00;;;6.40;;
15608;SDS011;64278;45.642;13.756;2022-12-29T00:48:49;6.40;;;5.78;;
15608;SDS011;64278;45.642;13.756;2022-12-29T00:51:33;7.20;;;6.50;;
15608;SDS011;64278;45.642;13.756;2022-12-29T00:53:59;7.07;;;6.45;;
15608;SDS011;64278;45.642;13.756;2022-12-29T00:56:24;6.78;;;6.18;;
15608;SDS011;64278;45.642;13.756;2022-12-29T00:58:50;7.60;;;6.65;;
15608;SDS011;64278;45.642;13.756;2022-12-29T01:01:16;7.10;;;6.40;;
15608;SDS011;64278;45.642;13.756;2022-12-29T01:03:41;6.25;;;5.75;;
15608;SDS011;64278;45.642;13.756;2022-12-29T01:06:07;7.38;;;6.55;;
15608;SDS011;64278;45.642;13.756;2022-12-29T01:08:34;6.55;;;5.85;;
15608;SDS011;64278;45.642;13.756;2022-12-29T01:11:05;6.20;;;5.60;;
15608;SDS011;64278;45.642;13.756;2022-12-29T01:13:32;6.47;;;5.88;;
15608;SDS011;64278;45.642;13.756;2022-12-29T01:15:58;6.63;;;6.13;;
15608;SDS011;64278;45.642;13.756;2022-12-29T01:18:24;7.20;;;6.50;;
15608;SDS011;64278;45.642;13.756;2022-12-29T01:20:50;7.18;;;6.53;;
15608;SDS011;64278;45.642;13.756;2022-12-29T01:23:16;6.70;;;6.10;;
15608;SDS011;64278;45.642;13.756;2022-12-29T01:25:42;6.65;;;6.05;;
15608;SDS011;64278;45.642;13.756;2022-12-29T01:28:07;6.63;;;5.97;;
15608;SDS011;64278;45.642;13.756;2022-12-29T01:30:36;6.95;;;6.25;;
15608;SDS011;64278;45.642;13.756;2022-12-29T01:33:02;6.72;;;6.22;;
15608;SDS011;64278;45.642;13.756;2022-12-29T01:35:28;6.72;;;6.13;;
15608;SDS011;64278;45.642;13.756;2022-12-29T01:37:53;6.70;;;6.10;;
15608;SDS011;64278;45.642;13.756;2022-12-29T01:40:19;6.18;;;5.63;;
15608;SDS011;64278;45.642;13.756;2022-12-29T01:42:45;5.97;;;5.47;;
15608;SDS011;64278;45.642;13.756;2022-12-29T01:45:14;5.90;;;5.32;;
15608;SDS011;64278;45.642;13.756;2022-12-29T01:47:43;6.47;;;5.88;;
15608;SDS011;64278;45.642;13.756;2022-12-29T01:50:24;7.32;;;6.50;;
15608;SDS011;64278;45.642;13.756;2022-12-29T01:52:58;6.60;;;6.00;;
15608;SDS011;64278;45.642;13.756;2022-12-29T01:55:28;5.90;;;5.40;;
15608;SDS011;64278;45.642;13.756;2022-12-29T01:57:56;6.65;;;6.07;;
15608;SDS011;64278;45.642;13.756;2022-12-29T02:00:25;6.35;;;5.75;;
15608;SDS011;64278;45.642;13.756;2022-12-29T02:02:51;6.43;;;5.93;;
15608;SDS011;64278;45.642;13.756;2022-12-29T13:51:31;12.80;;;11.43;;
15608;SDS011;64278;45.642;13.756;2022-12-29T13:56:54;13.80;;;11.30;;
15608;SDS011;64278;45.642;13.756;2022-12-29T13:59:28;13.80;;;12.35;;
15608;SDS011;64278;45.642;13.756;2022-12-29T14:05:04;12.82;;;10.93;;
15608;SDS011;64278;45.642;13.756;2022-12-29T14:08:00;12.32;;;11.13;;
15608;SDS011;64278;45.642;13.756;2022-12-29T14:10:38;15.32;;;10.45;;
15608;SDS011;64278;45.642;13.756;2022-12-29T14:13:18;11.40;;;10.25;;
15608;SDS011;64278;45.642;13.756;2022-12-29T14:15:54;12.88;;;10.90;;
15608;SDS011;64278;45.642;13.756;2022-12-29T14:20:57;11.45;;;9.93;;
15608;SDS011;64278;45.642;13.756;2022-12-29T14:23:40;11.13;;;9.40;;
15608;SDS011;64278;45.642;13.756;2022-12-29T14:26:15;10.57;;;9.50;;
15608;SDS011;64278;45.642;13.756;2022-12-29T14:28:56;11.68;;;9.98;;
15608;SDS011;64278;45.642;13.756;2022-12-29T14:31:40;12.93;;;10.65;;
15608;SDS011;64278;45.642;13.756;2022-12-29T14:44:28;16.65;;;11.07;;
15608;SDS011;64278;45.642;13.756;2022-12-29T14:49:22;18.33;;;11.55;;
15608;SDS011;64278;45.642;13.756;2022-12-29T14:51:55;18.52;;;11.63;;
15608;SDS011;64278;45.642;13.756;2022-12-29T14:57:07;17.90;;;10.98;;
15608;SDS011;64278;45.642;13.756;2022-12-29T14:59:40;15.20;;;10.48;;
15608;SDS011;64278;45.642;13.756;2022-12-29T15:02:13;16.90;;;10.52;;
15608;SDS011;64278;45.642;13.756;2022-12-29T15:04:50;14.48;;;11.23;;
15608;SDS011;64278;45.642;13.756;2022-12-29T15:07:18;16.63;;;10.68;;
15608;SDS011;64278;45.642;13.756;2022-12-29T15:09:46;14.32;;;10.52;;
15608;SDS011;64278;45.642;13.756;2022-12-29T15:12:34;17.65;;;10.75;;
15608;SDS011;64278;45.642;13.756;2022-12-29T15:15:26;16.50;;;10.57;;
15608;SDS011;64278;45.642;13.756;2022-12-29T15:17:54;17.35;;;10.63;;
15608;SDS011;64278;45.642;13.756;2022-12-29T15:20:22;13.68;;;9.60;;
15608;SDS011;64278;45.642;13.756;2022-12-29T15:23:00;10.95;;;9.70;;
15608;SDS011;64278;45.642;13.756;2022-12-29T15:25:33;15.00;;;10.65;;
15608;SDS011;64278;45.642;13.756;2022-12-29T15:28:02;12.35;;;9.82;;
15608;SDS011;64278;45.642;13.756;2022-12-29T15:30:29;11.80;;;9.43;;
15608;SDS011;64278;45.642;13.756;2022-12-29T15:32:55;15.25;;;10.27;;
15608;SDS011;64278;45.642;13.756;2022-12-29T15:37:52;14.32;;;9.88;;
15608;SDS011;64278;45.642;13.756;2022-12-29T15:40:22;13.10;;;10.70;;
15608;SDS011;64278;45.642;13.756;2022-12-29T15:45:40;13.60;;;9.48;;
15608;SDS011;64278;45.642;13.756;2022-12-29T15:48:07;12.45;;;9.98;;
15608;SDS011;64278;45.642;13.756;2022-12-29T15:50:47;10.65;;;8.23;;
15608;SDS011;64278;45.642;13.756;2022-12-29T15:53:27;13.32;;;9.77;;
15608;SDS011;64278;45.642;13.756;2022-12-29T15:56:16;12.60;;;9.13;;
15608;SDS011;64278;45.642;13.756;2022-12-29T15:58:43;10.20;;;9.07;;
15608;SDS011;64278;45.642;13.756;2022-12-29T16:03:46;10.38;;;9.32;;
15608;SDS011;64278;45.642;13.756;2022-12-29T16:09:05;9.77;;;8.77;;
15608;SDS011;64278;45.642;13.756;2022-12-29T16:11:39;9.80;;;8.90;;
15608;SDS011;64278;45.642;13.756;2022-12-29T16:14:09;10.95;;;8.88;;
15608;SDS011;64278;45.642;13.756;2022-12-29T16:16:43;9.82;;;8.82;;
15608;SDS011;64278;45.642;13.756;2022-12-29T16:19:15;12.15;;;9.20;;
15608;SDS011;64278;45.642;13.756;2022-12-29T16:21:49;12.50;;;9.38;;
15608;SDS011;64278;45.642;13.756;2022-12-29T16:24:16;9.32;;;8.43;;
15608;SDS011;64278;45.642;13.756;2022-12-29T16:29:16;9.68;;;8.55;;
15608;SDS011;64278;45.642;13.756;2022-12-29T16:41:55;11.50;;;8.27;;
15608;SDS011;64278;45.642;13.756;2022-12-29T16:44:27;9.70;;;8.63;;
15608;SDS011;64278;45.642;13.756;2022-12-29T16:49:23;9.05;;;8.00;;
15608;SDS011;64278;45.642;13.756;2022-12-29T16:51:50;9.70;;;8.40;;
15608;SDS011;64278;45.642;13.756;2022-12-29T16:54:31;9.55;;;7.95;;
15608;SDS011;64278;45.642;13.756;2022-12-29T16:57:01;9.60;;;8.60;;
15608;SDS011;64278;45.642;13.756;2022-12-29T17:02:05;9.13;;;8.20;;
15608;SDS011;64278;45.642;13.756;2022-12-29T17:04:35;10.02;;;8.20;;
15608;SDS011;64278;45.642;13.756;2022-12-29T17:07:01;8.90;;;8.15;;
15608;SDS011;64278;45.642;13.756;2022-12-29T17:09:27;8.93;;;8.05;;
15608;SDS011;64278;45.642;13.756;2022-12-29T17:11:55;8.98;;;8.15;;
15608;SDS011;64278;45.642;13.756;2022-12-29T17:19:59;8.57;;;7.43;;
15608;SDS011;64278;45.642;13.756;2022-12-29T17:22:30;8.52;;;7.53;;
15608;SDS011;64278;45.642;13.756;2022-12-29T17:24:57;8.73;;;7.30;;
15608;SDS011;64278;45.642;13.756;2022-12-29T17:27:42;9.15;;;8.05;;
15608;SDS011;64278;45.642;13.756;2022-12-29T17:30:18;8.93;;;8.02;;
15608;SDS011;64278;45.642;13.756;2022-12-29T17:32:54;10.25;;;8.13;;
15608;SDS011;64278;45.642;13.756;2022-12-29T17:35:33;8.90;;;8.00;;
15608;SDS011;64278;45.642;13.756;2022-12-29T17:37:58;8.80;;;7.90;;
15608;SDS011;64278;45.642;13.756;2022-12-29T17:40:28;9.38;;;7.97;;
15608;SDS011;64278;45.642;13.756;2022-12-29T17:42:56;9.63;;;8.15;;
15608;SDS011;64278;45.642;13.756;2022-12-29T17:45:24;7.60;;;6.88;;
15608;SDS011;64278;45.642;13.756;2022-12-29T17:47:51;8.35;;;7.50;;
15608;SDS011;64278;45.642;13.756;2022-12-29T17:50:19;8.85;;;7.95;;
15608;SDS011;64278;45.642;13.756;2022-12-29T17:52:57;8.38;;;7.50;;
15608;SDS011;64278;45.642;13.756;2022-12-29T17:55:25;8.90;;;8.00;;
15608;SDS011;64278;45.642;13.756;2022-12-29T17:57:51;9.10;;;8.20;;
15608;SDS011;64278;45.642;13.756;2022-12-29T18:00:19;8.57;;;7.68;;
15608;SDS011;64278;45.642;13.756;2022-12-29T18:02:46;9.63;;;7.65;;
15608;SDS011;64278;45.642;13.756;2022-12-29T18:07:50;9.55;;;8.23;;
15608;SDS011;64278;45.642;13.756;2022-12-29T18:10:17;9.32;;;8.43;;
15608;SDS011;64278;45.642;13.756;2022-12-29T18:12:44;8.50;;;7.68;;
15608;SDS011;64278;45.642;13.756;2022-12-29T18:17:48;11.43;;;8.93;;
15608;SDS011;64278;45.642;13.756;2022-12-29T18:20:14;8.88;;;7.95;;
15608;SDS011;64278;45.642;13.756;2022-12-29T18:22:41;8.75;;;7.93;;
15608;SDS011;64278;45.642;13.756;2022-12-29T18:25:17;8.98;;;8.07;;
15608;SDS011;64278;45.642;13.756;2022-12-29T18:27:47;9.27;;;8.38;;
15608;SDS011;64278;45.642;13.756;2022-12-29T18:30:13;8.90;;;8.10;;
15608;SDS011;64278;45.642;13.756;2022-12-29T18:32:38;8.98;;;8.07;;
15608;SDS011;64278;45.642;13.756;2022-12-29T18:35:09;9.02;;;8.23;;
15608;SDS011;64278;45.642;13.756;2022-12-29T18:37:47;9.50;;;8.55;;
15608;SDS011;64278;45.642;13.756;2022-12-29T18:40:13;10.70;;;9.70;;
15608;SDS011;64278;45.642;13.756;2022-12-29T18:42:38;10.30;;;9.25;;
15608;SDS011;64278;45.642;13.756;2022-12-29T18:47:59;8.70;;;7.88;;
15608;SDS011;64278;45.642;13.756;2022-12-29T18:50:25;9.82;;;8.90;;
15608;SDS011;64278;45.642;13.756;2022-12-29T18:52:51;8.57;;;7.68;;
15608;SDS011;64278;45.642;13.756;2022-12-29T18:55:20;9.18;;;8.27;;
15608;SDS011;64278;45.642;13.756;2022-12-29T18:57:47;9.85;;;8.95;;
15608;SDS011;64278;45.642;13.756;2022-12-29T19:00:14;10.15;;;9.15;;
15608;SDS011;64278;45.642;13.756;2022-12-29T19:02:41;9.40;;;8.60;;
15608;SDS011;64278;45.642;13.756;2022-12-29T19:05:24;9.07;;;8.25;;
15608;SDS011;64278;45.642;13.756;2022-12-29T19:08:03;9.82;;;8.93;;
15608;SDS011;64278;45.642;13.756;2022-12-29T19:10:30;8.73;;;8.02;;
15608;SDS011;64278;45.642;13.756;2022-12-29T19:12:55;9.60;;;8.70;;
15608;SDS011;64278;45.642;13.756;2022-12-29T19:17:48;8.65;;;7.85;;
15608;SDS011;64278;45.642;13.756;2022-12-29T19:20:25;9.32;;;8.48;;
15608;SDS011;64278;45.642;13.756;2022-12-29T19:23:05;8.32;;;7.63;;
15608;SDS011;64278;45.642;13.756;2022-12-29T19:25:37;9.18;;;8.27;;
15608;SDS011;64278;45.642;13.756;2022-12-29T19:28:04;10.00;;;9.10;;
15608;SDS011;64278;45.642;13.756;2022-12-29T19:30:31;9.45;;;8.45;;
15608;SDS011;64278;45.642;13.756;2022-12-29T19:33:00;9.85;;;8.82;;
15608;SDS011;64278;45.642;13.756;2022-12-29T19:35:28;10.02;;;9.13;;
15608;SDS011;64278;45.642;13.756;2022-12-29T19:37:54;9.68;;;8.77;;
15608;SDS011;64278;45.642;13.756;2022-12-29T19:40:21;9.82;;;8.90;;
15608;SDS011;64278;45.642;13.756;2022-12-29T19:42:49;10.35;;;9.35;;
15608;SDS011;64278;45.642;13.756;2022-12-29T19:45:15;10.27;;;8.27;;
15608;SDS011;64278;45.642;13.756;2022-12-29T19:47:41;10.75;;;9.43;;
15608;SDS011;64278;45.642;13.756;2022-12-29T19:50:08;9.40;;;8.05;;
15608;SDS011;64278;45.642;13.756;2022-12-29T19:52:36;10.25;;;9.25;;
15608;SDS011;64278;45.642;13.756;2022-12-29T19:55:02;10.25;;;9.25;;
15608;SDS011;64278;45.642;13.756;2022-12-29T19:57:28;9.10;;;8.27;;
15608;SDS011;64278;45.642;13.756;2022-12-29T19:59:55;10.52;;;8.85;;
15608;SDS011;64278;45.642;13.756;2022-12-29T20:02:29;11.00;;;8.80;;
15608;SDS011;64278;45.642;13.756;2022-12-29T20:04:57;9.32;;;8.30;;
15608;SDS011;64278;45.642;13.756;2022-12-29T20:07:23;9.40;;;8.52;;
15608;SDS011;64278;45.642;13.756;2022-12-29T20:09:50;9.57;;;8.57;;
15608;SDS011;64278;45.642;13.756;2022-12-29T20:12:16;11.10;;;9.07;;
15608;SDS011;64278;45.642;13.756;2022-12-29T20:14:42;10.15;;;9.25;;
15608;SDS011;64278;45.642;13.756;2022-12-29T20:17:10;10.00;;;9.02;;
15608;SDS011;64278;45.642;13.756;2022-12-29T20:19:38;9.98;;;8.98;;
15608;SDS011;64278;45.642;13.756;2022-12-29T20:22:05;10.07;;;8.68;;
15608;SDS011;64278;45.642;13.756;2022-12-29T20:24:32;9.73;;;8.77;;
15608;SDS011;64278;45.642;13.756;2022-12-29T20:26:59;9.93;;;8.93;;
15608;SDS011;64278;45.642;13.756;2022-12-29T20:29:24;10.25;;;9.20;;
15608;SDS011;64278;45.642;13.756;2022-12-29T20:31:51;15.95;;;9.07;;
15608;SDS011;64278;45.642;13.756;2022-12-29T20:34:17;8.90;;;8.00;;
15608;SDS011;64278;45.642;13.756;2022-12-29T20:36:44;9.88;;;8.85;;
15608;SDS011;64278;45.642;13.756;2022-12-29T20:39:18;10.13;;;9.13;;
15608;SDS011;64278;45.642;13.756;2022-12-29T20:41:44;9.77;;;8.77;;
15608;SDS011;64278;45.642;13.756;2022-12-29T20:44:12;11.18;;;8.50;;
15608;SDS011;64278;45.642;13.756;2022-12-29T20:46:38;8.45;;;7.63;;
15608;SDS011;64278;45.642;13.756;2022-12-29T20:49:04;9.73;;;8.73;;
15608;SDS011;64278;45.642;13.756;2022-12-29T20:51:30;10.00;;;9.02;;
15608;SDS011;64278;45.642;13.756;2022-12-29T20:53:56;9.70;;;8.68;;
15608;SDS011;64278;45.642;13.756;2022-12-29T20:56:23;9.57;;;8.68;;
15608;SDS011;64278;45.642;13.756;2022-12-29T20:58:51;9.75;;;8.68;;
15608;SDS011;64278;45.642;13.756;2022-12-29T21:01:19;9.48;;;8.52;;
15608;SDS011;64278;45.642;13.756;2022-12-29T21:03:46;9.05;;;8.30;;
15608;SDS011;64278;45.642;13.756;2022-12-29T21:06:12;8.80;;;7.90;;
15608;SDS011;64278;45.642;13.756;2022-12-29T21:08:38;9.23;;;8.32;;
15608;SDS011;64278;45.642;13.756;2022-12-29T21:11:04;8.35;;;7.55;;
15608;SDS011;64278;45.642;13.756;2022-12-29T21:13:30;9.00;;;8.10;;
15608;SDS011;64278;45.642;13.756;2022-12-29T21:16:00;9.15;;;8.27;;
15608;SDS011;64278;45.642;13.756;2022-12-29T21:18:28;8.40;;;7.70;;
15608;SDS011;64278;45.642;13.756;2022-12-29T21:21:03;9.60;;;8.60;;
15608;SDS011;64278;45.642;13.756;2022-12-29T21:23:31;9.35;;;8.27;;
15608;SDS011;64278;45.642;13.756;2022-12-29T21:25:56;8.27;;;7.47;;
15608;SDS011;64278;45.642;13.756;2022-12-29T21:28:24;9.88;;;8.60;;
15608;SDS011;64278;45.642;13.756;2022-12-29T21:30:50;9.38;;;8.48;;
15608;SDS011;64278;45.642;13.756;2022-12-29T21:33:16;10.00;;;9.00;;
15608;SDS011;64278;45.642;13.756;2022-12-29T21:35:43;9.48;;;8.52;;
15608;SDS011;64278;45.642;13.756;2022-12-29T21:38:09;9.30;;;8.50;;
15608;SDS011;64278;45.642;13.756;2022-12-29T21:40:35;8.98;;;8.18;;
15608;SDS011;64278;45.642;13.756;2022-12-29T21:43:03;8.57;;;7.78;;
15608;SDS011;64278;45.642;13.756;2022-12-29T21:45:29;9.35;;;8.45;;
15608;SDS011;64278;45.642;13.756;2022-12-29T21:50:44;9.15;;;8.32;;
15608;SDS011;64278;45.642;13.756;2022-12-29T21:53:34;9.10;;;8.13;;
15608;SDS011;64278;45.642;13.756;2022-12-29T21:58:44;8.07;;;7.32;;
15608;SDS011;64278;45.642;13.756;2022-12-29T22:01:31;8.50;;;7.80;;
15608;SDS011;64278;45.642;13.756;2022-12-29T22:04:17;9.43;;;8.52;;
15608;SDS011;64278;45.642;13.756;2022-12-29T22:07:05;9.27;;;8.38;;
15608;SDS011;64278;45.642;13.756;2022-12-29T22:09:50;8.43;;;7.68;;
15608;SDS011;64278;45.642;13.756;2022-12-29T22:12:35;9.10;;;8.30;;
15608;SDS011;64278;45.642;13.756;2022-12-29T22:15:19;8.88;;;8.07;;
15608;SDS011;64278;45.642;13.756;2022-12-29T22:17:46;7.82;;;7.13;;
15608;SDS011;64278;45.642;13.756;2022-12-29T22:20:13;8.20;;;7.50;;
15608;SDS011;64278;45.642;13.756;2022-12-29T22:22:39;8.35;;;7.55;;
15608;SDS011;64278;45.642;13.756;2022-12-29T22:25:05;8.38;;;7.68;;
15608;SDS011;64278;45.642;13.756;2022-12-29T22:27:32;8.35;;;7.55;;
15608;SDS011;64278;45.642;13.756;2022-12-29T22:29:58;8.05;;;7.35;;
15608;SDS011;64278;45.642;13.756;2022-12-29T22:32:24;8.75;;;8.02;;
15608;SDS011;64278;45.642;13.756;2022-12-29T22:34:50;9.18;;;8.45;;
15608;SDS011;64278;45.642;13.756;2022-12-29T22:37:16;9.20;;;8.30;;
15608;SDS011;64278;45.642;13.756;2022-12-29T22:39:41;8.73;;;7.93;;
15608;SDS011;64278;45.642;13.756;2022-12-29T22:42:07;8.55;;;7.78;;
15608;SDS011;64278;45.642;13.756;2022-12-29T22:44:33;9.02;;;8.23;;
15608;SDS011;64278;45.642;13.756;2022-12-29T22:46:59;8.95;;;8.15;;
15608;SDS011;64278;45.642;13.756;2022-12-29T22:49:25;10.52;;;9.52;;
15608;SDS011;64278;45.642;13.756;2022-12-29T22:51:51;9.02;;;8.23;;
15608;SDS011;64278;45.642;13.756;2022-12-29T22:54:17;8.95;;;8.05;;
15608;SDS011;64278;45.642;13.756;2022-12-29T22:56:43;8.60;;;7.80;;
15608;SDS011;64278;45.642;13.756;2022-12-29T22:59:10;9.63;;;8.63;;
15608;SDS011;64278;45.642;13.756;2022-12-29T23:01:36;9.35;;;8.48;;
15608;SDS011;64278;45.642;13.756;2022-12-29T23:04:03;10.35;;;8.77;;
15608;SDS011;64278;45.642;13.756;2022-12-29T23:06:29;9.50;;;8.65;;
15608;SDS011;64278;45.642;13.756;2022-12-29T23:08:56;9.40;;;8.30;;
15608;SDS011;64278;45.642;13.756;2022-12-29T23:11:23;9.93;;;8.93;;
15608;SDS011;64278;45.642;13.756;2022-12-29T23:13:49;9.48;;;8.68;;
15608;SDS011;64278;45.642;13.756;2022-12-29T23:16:14;9.73;;;8.82;;
15608;SDS011;64278;45.642;13.756;2022-12-29T23:18:40;9.32;;;8.40;;
15608;SDS011;64278;45.642;13.756;2022-12-29T23:21:07;9.82;;;8.93;;
15608;SDS011;64278;45.642;13.756;2022-12-29T23:23:33;9.18;;;8.27;;
15608;SDS011;64278;45.642;13.756;2022-12-29T23:26:18;10.73;;;9.73;;
15608;SDS011;64278;45.642;13.756;2022-12-29T23:28:45;9.50;;;8.60;;
15608;SDS011;64278;45.642;13.756;2022-12-29T23:31:11;9.75;;;8.85;;
15608;SDS011;64278;45.642;13.756;2022-12-29T23:33:37;10.30;;;9.30;;
15608;SDS011;64278;45.642;13.756;2022-12-29T23:36:03;10.68;;;9.65;;
15608;SDS011;64278;45.642;13.756;2022-12-29T23:38:29;10.48;;;9.38;;
15608;SDS011;64278;45.642;13.756;2022-12-29T23:40:55;10.95;;;9.90;;
15608;SDS011;64278;45.642;13.756;2022-12-29T23:43:21;11.70;;;10.55;;
15608;SDS011;64278;45.642;13.756;2022-12-29T23:45:46;10.52;;;9.63;;
15608;SDS011;64278;45.642;13.756;2022-12-29T23:48:12;10.90;;;10.00;;
15608;SDS011;64278;45.642;13.756;2022-12-29T23:50:38;10.00;;;9.10;;
15608;SDS011;64278;45.642;13.756;2022-12-29T23:53:06;10.38;;;9.48;;
15608;SDS011;64278;45.642;13.756;2022-12-29T23:55:32;10.95;;;10.05;;
15608;SDS011;64278;45.642;13.756;2022-12-29T23:57:58;10.02;;;9.18;;
